Hovedside
METAR-TAF:

METAR-TAF

Lufthavner :

Vidsel, Sverige

breddegrad: 65-52N, lengdegrad: 020-08E, høyde over havet: 180 m

Gjeldene værobservasjon

Denne rapporten ble laget for 40 minutter siden, klokken 16:50 UTC
Vind 8 kt fra Vest, skiftende mellom Vest-sørvest og Nordvest
Temperatur 17°C
Luftfuktighet 48%
Trykk 1014 hPa
Sikt 10 km eller mer

METAR: ESPE 241650Z AUTO 28008KT 250V310 9999 FEW200/// 17/06 Q1014

Tid: 19:30 (17:30 UTC)

Varsel

Denne rapporten ble laget for 6 timer og 0 minutter siden, klokken 11:30 UTC
Varsel gyldig fra 24. klokken 12 UTC til 24. klokken 14 UTC
Vind 10 kt fra Vest-nordvest med vindkast opp mot 20 kt
Sikt 10 km eller mer
Spredte skyer i en høyde av 4500 ft

TAF: ESPE 241130Z 2412/2414 30010G20KT 9999 SCT045 RMK MIL

Værobservasjoner og værvarsel for over 4000 flyplasser (METAR- og TAF-rapporter).

Tilgjengelige stasjoner er representert av de røde og gule prikkene på kartet.

Hold musepekeren over prikken for å se navnet på stasjonen.

Klikk så for å se værobservasjoner og -varsler.

For å forandre kartet kan du klikke på den grønne knappen med svart kryss for å zoome inn, på den grønne knappen med strek for å zoome ut, eller på de grønne pilene for å se tilstøtende kart.


METAR-TAF: